createdAt,value
2018-09-22T00:00:36.458Z,73.72
2018-09-22T00:02:12.257Z,73.71
2018-09-22T00:03:49.903Z,73.82
2018-09-22T00:05:25.288Z,73.96
2018-09-22T00:07:02.498Z,73.39
2018-09-22T00:08:38.058Z,73.80
2018-09-22T00:10:13.746Z,73.94
2018-09-22T00:11:49.452Z,73.79
2018-09-22T00:13:25.248Z,73.68
2018-09-22T00:15:00.485Z,73.79
2018-09-22T00:16:36.506Z,73.98
2018-09-22T00:18:14.614Z,74.48
2018-09-22T00:19:51.749Z,74.44
2018-09-22T00:21:27.627Z,74.32
2018-09-22T00:23:05.328Z,74.51
2018-09-22T00:24:42.732Z,74.40
2018-09-22T00:26:19.335Z,74.45
2018-09-22T00:27:55.585Z,74.31
2018-09-22T00:29:30.924Z,74.70
2018-09-22T00:31:07.847Z,74.51
2018-09-22T00:32:44.387Z,74.65
2018-09-22T00:34:21.186Z,74.97
2018-09-22T00:35:56.707Z,74.80
2018-09-22T00:37:32.602Z,74.58
2018-09-22T00:39:11.097Z,75.14
2018-09-22T00:40:47.337Z,74.50
2018-09-22T00:42:23.942Z,75.14
2018-09-22T00:44:01.970Z,75.04
2018-09-22T00:45:38.293Z,75.33
2018-09-22T00:47:14.578Z,75.35
2018-09-22T00:48:49.987Z,75.19
2018-09-22T00:50:25.409Z,75.60
2018-09-22T00:52:01.614Z,75.39
2018-09-22T00:53:36.993Z,75.71
2018-09-22T00:55:13.104Z,75.51
2018-09-22T00:56:48.744Z,75.52
2018-09-22T00:58:23.914Z,75.91
2018-09-22T01:00:00.257Z,75.90
2018-09-22T01:01:36.329Z,75.85
2018-09-22T01:03:11.886Z,75.90
2018-09-22T01:04:48.295Z,76.07
2018-09-22T01:06:25.672Z,75.91
2018-09-22T01:08:01.559Z,76.01
2018-09-22T01:09:37.401Z,76.04
2018-09-22T01:11:14.491Z,75.81
2018-09-22T01:12:50.079Z,75.99
2018-09-22T01:14:25.649Z,76.12
2018-09-22T01:16:02.256Z,76.23
2018-09-22T01:17:37.962Z,76.14
2018-09-22T01:19:13.764Z,76.55
2018-09-22T01:20:49.970Z,76.22
2018-09-22T01:22:27.661Z,76.49
2018-09-22T01:24:03.197Z,76.32
2018-09-22T01:25:38.660Z,76.47
2018-09-22T01:27:14.033Z,76.49
2018-09-22T01:28:49.508Z,76.49
2018-09-22T01:30:25.151Z,76.53
2018-09-22T01:32:03.862Z,76.84
2018-09-22T01:33:39.503Z,76.70
2018-09-22T01:35:15.262Z,77.06
2018-09-22T01:36:50.587Z,76.62
2018-09-22T01:38:25.771Z,77.37
2018-09-22T01:40:02.209Z,76.78
2018-09-22T01:41:37.565Z,77.18
2018-09-22T01:43:12.819Z,77.55
2018-09-22T01:44:50.540Z,77.57
2018-09-22T01:46:26.956Z,77.70
2018-09-22T01:48:04.832Z,77.77
2018-09-22T01:49:40.186Z,78.27
2018-09-22T01:51:15.331Z,78.49
2018-09-22T01:52:51.110Z,78.98
2018-09-22T01:54:26.978Z,79.10
2018-09-22T01:56:04.437Z,79.14
2018-09-22T01:57:41.536Z,79.57
2018-09-22T01:59:16.989Z,79.99
2018-09-22T02:00:52.393Z,80.23
2018-09-22T02:02:28.528Z,80.41
2018-09-22T02:04:04.945Z,80.78
2018-09-22T02:05:40.123Z,81.10
2018-09-22T02:07:15.485Z,81.19
2018-09-22T02:08:52.392Z,81.37
2018-09-22T02:10:29.742Z,81.62
2018-09-22T02:12:08.597Z,82.02
2018-09-22T02:13:44.320Z,82.26
2018-09-22T02:15:26.929Z,82.27
2018-09-22T02:17:04.624Z,82.67
2018-09-22T02:18:40.370Z,82.46
2018-09-22T02:20:15.995Z,82.78
2018-09-22T02:21:51.842Z,82.71
2018-09-22T02:23:26.874Z,82.52
2018-09-22T02:25:01.862Z,82.86
2018-09-22T02:26:44.457Z,83.21
2018-09-22T02:28:19.666Z,83.39
2018-09-22T02:29:55.244Z,83.39
2018-09-22T02:31:30.318Z,83.40
2018-09-22T02:33:05.483Z,83.47
2018-09-22T02:34:41.741Z,83.81
2018-09-22T02:36:23.230Z,83.67
2018-09-22T02:37:58.810Z,83.28
2018-09-22T02:39:33.945Z,83.54
2018-09-22T02:41:10.147Z,83.59
2018-09-22T02:42:45.523Z,83.87
2018-09-22T02:44:20.924Z,83.83
2018-09-22T02:45:57.343Z,83.66
2018-09-22T02:47:32.465Z,83.61
2018-09-22T02:49:07.518Z,84.05
2018-09-22T02:50:43.448Z,83.81
2018-09-22T02:52:18.352Z,83.69
2018-09-22T02:53:54.512Z,83.92
2018-09-22T02:55:30.326Z,83.94
2018-09-22T02:57:05.294Z,84.05
2018-09-22T02:58:40.971Z,84.22
2018-09-22T03:00:17.906Z,84.22
2018-09-22T03:01:53.515Z,84.34
2018-09-22T03:03:28.504Z,84.27
2018-09-22T03:05:04.379Z,84.28
2018-09-22T03:06:39.996Z,84.01
2018-09-22T03:08:15.251Z,84.25
2018-09-22T03:09:50.520Z,84.32
2018-09-22T03:11:25.375Z,84.30
2018-09-22T03:13:00.408Z,84.58
2018-09-22T03:14:35.887Z,84.72
2018-09-22T03:16:11.675Z,84.37
2018-09-22T03:17:46.834Z,84.33
2018-09-22T03:19:21.802Z,84.64
2018-09-22T03:20:56.737Z,84.84
2018-09-22T03:22:32.646Z,84.79
2018-09-22T03:24:07.870Z,84.72
2018-09-22T03:25:45.253Z,84.91
2018-09-22T03:27:20.603Z,84.92
2018-09-22T03:28:57.572Z,85.21
2018-09-22T03:30:32.604Z,84.48
2018-09-22T03:32:07.995Z,85.27
2018-09-22T03:33:43.501Z,85.53
2018-09-22T03:35:18.721Z,85.07
2018-09-22T03:36:54.917Z,85.18
2018-09-22T03:38:30.168Z,85.33
2018-09-22T03:40:19.941Z,85.76
2018-09-22T03:41:55.538Z,85.92
2018-09-22T03:43:30.553Z,85.69
2018-09-22T03:45:07.455Z,86.36
2018-09-22T03:46:42.324Z,86.02
2018-09-22T03:48:17.467Z,86.39
2018-09-22T03:49:52.499Z,86.21
2018-09-22T03:51:27.718Z,86.28
2018-09-22T03:53:03.363Z,86.57
2018-09-22T03:54:38.374Z,86.54
2018-09-22T03:56:13.329Z,86.77
2018-09-22T03:57:51.331Z,86.84
2018-09-22T03:59:28.990Z,87.33
2018-09-22T04:01:04.665Z,87.03
2018-09-22T04:02:40.101Z,86.89
2018-09-22T04:04:16.438Z,87.39
2018-09-22T04:05:51.514Z,86.94
2018-09-22T04:07:27.571Z,87.28
2018-09-22T04:09:02.658Z,87.39
2018-09-22T04:10:37.910Z,87.45
2018-09-22T04:12:13.234Z,87.58
2018-09-22T04:13:48.310Z,87.39
2018-09-22T04:15:23.798Z,87.63
2018-09-22T04:16:58.738Z,87.31
2018-09-22T04:18:33.614Z,87.59
2018-09-22T04:20:08.791Z,87.58
2018-09-22T04:21:43.799Z,87.96
2018-09-22T04:23:19.228Z,87.41
2018-09-22T04:24:54.239Z,87.70
2018-09-22T04:26:29.839Z,88.03
2018-09-22T04:28:04.957Z,87.96
2018-09-22T04:29:40.892Z,87.67
2018-09-22T04:31:16.039Z,87.71
2018-09-22T04:32:51.382Z,88.06
2018-09-22T04:34:27.524Z,88.11
2018-09-22T04:36:04.874Z,88.43
2018-09-22T04:37:40.250Z,88.37
2018-09-22T04:39:16.401Z,88.25
2018-09-22T04:40:51.773Z,88.49
2018-09-22T04:42:30.982Z,88.38
2018-09-22T04:44:06.127Z,88.41
2018-09-22T04:45:41.595Z,88.60
2018-09-22T04:47:17.322Z,88.87
2018-09-22T04:48:52.498Z,88.43
2018-09-22T04:50:27.462Z,88.74
2018-09-22T04:52:02.662Z,88.62
2018-09-22T04:53:37.604Z,89.11
2018-09-22T04:55:12.882Z,89.09
2018-09-22T04:56:48.587Z,88.46
2018-09-22T04:58:24.099Z,89.18
2018-09-22T05:00:00.091Z,89.07
2018-09-22T05:01:35.248Z,89.22
2018-09-22T05:03:10.258Z,88.95
2018-09-22T05:04:45.389Z,88.84
2018-09-22T05:06:20.555Z,88.74
2018-09-22T05:07:56.385Z,88.55
2018-09-22T05:09:32.388Z,88.94
2018-09-22T05:11:07.733Z,89.02
2018-09-22T05:12:44.184Z,88.41
2018-09-22T05:14:19.729Z,88.74
2018-09-22T05:15:55.406Z,88.83
2018-09-22T05:17:30.781Z,88.96
2018-09-22T05:19:06.452Z,88.77
2018-09-22T05:20:42.957Z,88.49
2018-09-22T05:22:19.503Z,88.86
2018-09-22T05:23:56.277Z,88.32
2018-09-22T05:25:34.461Z,88.80
2018-09-22T05:27:10.466Z,88.54
2018-09-22T05:28:46.311Z,88.80
2018-09-22T05:30:23.574Z,88.60
2018-09-22T05:31:58.838Z,88.73
2018-09-22T05:33:34.542Z,88.48
2018-09-22T05:35:10.178Z,88.69
2018-09-22T05:36:45.306Z,88.27
2018-09-22T05:38:20.661Z,88.68
2018-09-22T05:40:02.039Z,88.44
2018-09-22T05:41:37.217Z,88.53
2018-09-22T05:43:12.542Z,88.55
2018-09-22T05:44:47.679Z,88.37
2018-09-22T05:46:25.450Z,88.35
2018-09-22T05:48:01.061Z,88.61
2018-09-22T05:49:37.233Z,88.77
2018-09-22T05:51:12.610Z,88.44
2018-09-22T05:52:48.810Z,88.53
2018-09-22T05:54:25.668Z,88.70
2018-09-22T05:56:01.162Z,88.52
2018-09-22T05:57:38.842Z,88.50
2018-09-22T05:59:18.939Z,88.46
2018-09-22T06:00:56.531Z,87.94
2018-09-22T06:02:34.634Z,88.14
2018-09-22T06:04:12.258Z,88.10
2018-09-22T06:05:48.827Z,88.14
2018-09-22T06:07:26.070Z,88.44
2018-09-22T06:09:01.126Z,88.18
2018-09-22T06:10:38.586Z,88.16
2018-09-22T06:12:13.757Z,88.38
2018-09-22T06:13:52.124Z,88.19
2018-09-22T06:15:28.407Z,88.45
2018-09-22T06:17:05.447Z,87.91
2018-09-22T06:18:40.646Z,88.34
2018-09-22T06:20:16.906Z,87.93
2018-09-22T06:21:52.527Z,87.97
2018-09-22T06:23:28.388Z,87.95
2018-09-22T06:25:03.399Z,87.81
2018-09-22T06:26:38.802Z,87.77
2018-09-22T06:28:14.026Z,88.03
2018-09-22T06:29:50.573Z,87.59
2018-09-22T06:31:25.670Z,87.98
2018-09-22T06:33:02.349Z,87.38
2018-09-22T06:34:37.542Z,87.56
2018-09-22T06:36:20.274Z,87.69
2018-09-22T06:37:56.264Z,87.72
2018-09-22T06:39:31.863Z,87.56
2018-09-22T06:41:09.903Z,87.17
2018-09-22T06:42:45.507Z,86.73
2018-09-22T06:44:22.695Z,87.11
2018-09-22T06:45:57.770Z,87.00
2018-09-22T06:47:34.444Z,86.38
2018-09-22T06:49:09.581Z,86.34
2018-09-22T06:50:44.897Z,86.25
2018-09-22T06:52:19.964Z,85.91
2018-09-22T06:53:56.485Z,85.79
2018-09-22T06:55:34.173Z,85.65
2018-09-22T06:57:11.359Z,85.67
2018-09-22T06:58:47.078Z,85.46
2018-09-22T07:00:24.029Z,85.34
2018-09-22T07:02:03.986Z,84.96
2018-09-22T07:03:40.789Z,85.11
2018-09-22T07:05:18.315Z,84.82
2018-09-22T07:06:54.681Z,84.74
2018-09-22T07:08:30.330Z,84.33
2018-09-22T07:10:08.154Z,84.62
2018-09-22T07:11:46.953Z,83.90
2018-09-22T07:13:22.386Z,84.15
2018-09-22T07:14:57.829Z,83.82
2018-09-22T07:16:33.420Z,83.82
2018-09-22T07:18:11.843Z,83.31
2018-09-22T07:19:48.049Z,83.30
2018-09-22T07:21:28.071Z,83.22
2018-09-22T07:23:08.068Z,82.93
2018-09-22T07:24:44.248Z,82.95
2018-09-22T07:26:19.246Z,82.91
2018-09-22T07:27:55.513Z,82.41
2018-09-22T07:29:31.305Z,82.09
2018-09-22T07:31:06.832Z,82.40
2018-09-22T07:32:44.795Z,81.51
2018-09-22T07:34:21.952Z,81.58
2018-09-22T07:35:58.601Z,81.63
2018-09-22T07:37:35.507Z,81.35
2018-09-22T07:39:13.880Z,81.27
2018-09-22T07:40:50.811Z,80.80
2018-09-22T07:42:27.210Z,81.17
2018-09-22T07:44:04.156Z,80.70
2018-09-22T07:45:39.473Z,80.47
2018-09-22T07:47:14.846Z,80.56
2018-09-22T07:48:59.767Z,80.32
2018-09-22T07:50:37.177Z,80.62
2018-09-22T07:52:13.219Z,80.00
2018-09-22T07:53:49.476Z,80.15
2018-09-22T07:55:25.240Z,79.93
2018-09-22T07:57:00.527Z,79.64
2018-09-22T07:58:36.895Z,80.02
2018-09-22T08:00:17.836Z,79.92
2018-09-22T08:01:54.114Z,79.02
2018-09-22T08:03:29.851Z,79.25
2018-09-22T08:05:10.562Z,78.63
2018-09-22T08:06:47.793Z,78.25
2018-09-22T08:08:23.121Z,78.88
2018-09-22T08:09:58.719Z,77.78
2018-09-22T08:11:34.083Z,77.95
2018-09-22T08:13:09.100Z,77.92
2018-09-22T08:14:44.365Z,77.23
2018-09-22T08:16:19.673Z,76.34
2018-09-22T08:17:56.391Z,76.17
2018-09-22T08:19:35.148Z,75.99
2018-09-22T08:21:10.590Z,76.13
2018-09-22T08:22:47.903Z,76.05
2018-09-22T08:24:23.393Z,74.66
2018-09-22T08:25:59.281Z,75.03
2018-09-22T08:27:34.582Z,74.43
2018-09-22T08:29:15.590Z,74.52
2018-09-22T08:30:51.321Z,73.91
2018-09-22T08:32:27.283Z,74.41
2018-09-22T08:34:09.074Z,74.77
2018-09-22T08:35:47.909Z,74.31
2018-09-22T08:37:27.395Z,73.65
2018-09-22T08:39:04.263Z,73.63
2018-09-22T08:40:41.202Z,73.33
2018-09-22T08:42:17.671Z,73.51
2018-09-22T08:43:59.952Z,73.51
2018-09-22T08:45:35.915Z,73.03
2018-09-22T08:47:12.102Z,72.83
2018-09-22T08:48:48.794Z,72.71
2018-09-22T08:50:24.975Z,72.77
2018-09-22T08:52:00.378Z,72.47
2018-09-22T08:53:41.213Z,71.92
2018-09-22T08:55:18.276Z,72.65
2018-09-22T08:56:56.095Z,71.92
2018-09-22T08:58:32.569Z,71.77
2018-09-22T09:00:10.785Z,71.84
2018-09-22T09:01:50.059Z,71.58
2018-09-22T09:03:28.926Z,72.44
2018-09-22T09:05:06.170Z,70.79
2018-09-22T09:06:44.475Z,71.69
2018-09-22T09:08:22.980Z,70.84
2018-09-22T09:10:06.356Z,70.12
2018-09-22T09:11:42.658Z,70.50
2018-09-22T09:13:20.119Z,69.63
2018-09-22T09:14:56.430Z,69.75
2018-09-22T09:16:34.502Z,69.26
2018-09-22T09:18:10.283Z,68.55
2018-09-22T09:19:45.639Z,66.85
2018-09-22T09:21:22.639Z,67.38
2018-09-22T09:23:01.852Z,65.92
2018-09-22T09:24:39.907Z,65.63
2018-09-22T09:26:17.122Z,65.39
2018-09-22T09:27:52.599Z,64.92
2018-09-22T09:29:29.870Z,64.98
2018-09-22T09:31:11.067Z,64.83
2018-09-22T09:32:49.174Z,63.66
2018-09-22T09:34:25.192Z,63.73
2018-09-22T09:36:03.140Z,63.31
2018-09-22T09:37:40.525Z,63.25
2018-09-22T09:39:15.909Z,63.14
2018-09-22T09:40:51.701Z,62.80
2018-09-22T09:42:28.362Z,63.56
2018-09-22T09:44:04.670Z,63.82
2018-09-22T09:45:39.851Z,63.43
2018-09-22T09:47:19.548Z,64.21
2018-09-22T09:48:57.095Z,64.33
2018-09-22T09:50:35.091Z,62.77
2018-09-22T09:52:12.970Z,63.02
2018-09-22T09:53:51.633Z,61.81
2018-09-22T09:55:33.973Z,63.27
2018-09-22T09:57:13.353Z,62.23
2018-09-22T09:58:52.289Z,62.21
2018-09-22T10:00:37.480Z,62.95
2018-09-22T10:02:17.524Z,62.59
2018-09-22T10:03:54.606Z,62.55
2018-09-22T10:05:38.187Z,63.23
2018-09-22T10:07:19.788Z,63.30
2018-09-22T10:09:00.244Z,62.07
2018-09-22T10:10:41.364Z,62.62
2018-09-22T10:12:23.628Z,63.04
2018-09-22T10:14:02.172Z,61.33
2018-09-22T10:15:41.235Z,61.00
2018-09-22T10:17:32.815Z,60.82
2018-09-22T10:19:12.336Z,60.22
2018-09-22T10:20:49.948Z,61.00
2018-09-22T10:22:51.611Z,59.73
2018-09-22T10:24:40.469Z,58.79
2018-09-22T10:28:15.075Z,58.68
2018-09-22T10:29:52.055Z,58.73
2018-09-22T10:31:33.935Z,57.98
2018-09-22T10:33:11.276Z,57.34
2018-09-22T10:34:56.370Z,56.12
2018-09-22T10:36:38.437Z,55.17
2018-09-22T10:38:15.912Z,54.04
2018-09-22T10:39:52.433Z,53.04
2018-09-22T10:41:29.242Z,52.17
2018-09-22T10:43:05.853Z,50.18
2018-09-22T10:44:43.182Z,50.30
2018-09-22T10:46:19.626Z,50.44
2018-09-22T10:47:56.567Z,50.58
2018-09-22T10:49:32.081Z,50.09
2018-09-22T10:51:09.725Z,50.89
2018-09-22T10:52:47.762Z,49.24
2018-09-22T10:54:26.397Z,50.26
2018-09-22T10:56:06.261Z,49.78
2018-09-22T10:57:46.932Z,47.91
2018-09-22T10:59:31.149Z,48.82
2018-09-22T11:01:11.024Z,49.86
2018-09-22T11:02:50.212Z,50.72
2018-09-22T11:04:25.767Z,51.42
2018-09-22T11:06:02.422Z,50.77
2018-09-22T11:07:45.432Z,52.08
2018-09-22T11:09:23.849Z,51.50
2018-09-22T11:11:00.915Z,51.42
2018-09-22T11:12:36.918Z,52.48
2018-09-22T11:14:13.371Z,50.76
2018-09-22T11:15:50.129Z,51.37
2018-09-22T11:17:25.789Z,51.16
2018-09-22T11:19:02.647Z,52.08
2018-09-22T11:20:38.951Z,51.30
2018-09-22T11:22:18.859Z,51.50
2018-09-22T11:23:55.957Z,50.18
2018-09-22T11:25:35.879Z,51.12
2018-09-22T11:27:12.382Z,50.78
2018-09-22T11:28:56.651Z,50.47
2018-09-22T11:30:35.614Z,51.59
2018-09-22T11:32:16.582Z,51.65
2018-09-22T11:34:19.087Z,51.59
2018-09-22T11:35:55.680Z,52.62
2018-09-22T11:37:33.220Z,52.24
2018-09-22T11:39:12.095Z,51.95
2018-09-22T11:40:48.991Z,52.93
2018-09-22T11:42:27.583Z,53.07
2018-09-22T11:44:03.772Z,52.82
2018-09-22T11:45:40.444Z,53.06
2018-09-22T11:47:19.448Z,53.06
2018-09-22T11:48:54.835Z,52.84
2018-09-22T11:50:36.053Z,53.28
2018-09-22T11:52:14.770Z,53.14
2018-09-22T11:53:50.550Z,54.95
2018-09-22T11:55:27.965Z,54.25
2018-09-22T11:57:05.095Z,53.42
2018-09-22T11:58:42.996Z,55.30
2018-09-22T12:00:26.725Z,54.74
2018-09-22T12:02:03.726Z,56.57
2018-09-22T12:03:50.813Z,58.69
2018-09-22T12:05:38.541Z,58.83
2018-09-22T12:07:23.631Z,61.69
2018-09-22T12:09:05.063Z,62.47
2018-09-22T12:10:41.074Z,63.41
2018-09-22T12:12:22.699Z,65.05
2018-09-22T12:14:08.404Z,65.15
2018-09-22T12:15:49.346Z,66.94
2018-09-22T12:17:38.033Z,68.53
2018-09-22T12:19:20.034Z,67.91
2018-09-22T12:21:08.022Z,70.17
2018-09-22T12:22:45.608Z,69.67
2018-09-22T12:24:26.900Z,69.46
2018-09-22T12:26:08.720Z,69.72
2018-09-22T12:27:51.372Z,70.58
2018-09-22T12:29:30.290Z,68.17
2018-09-22T12:31:15.279Z,67.47
2018-09-22T12:32:52.995Z,67.66
2018-09-22T12:34:33.910Z,67.47
2018-09-22T12:36:19.207Z,67.00
2018-09-22T12:40:16.089Z,67.86
2018-09-22T12:41:52.973Z,67.67
2018-09-22T12:43:33.467Z,67.53
2018-09-22T12:45:09.421Z,67.47
2018-09-22T12:46:45.546Z,68.08
2018-09-22T12:48:23.092Z,67.67
2018-09-22T12:49:59.540Z,67.32
2018-09-22T12:51:34.955Z,68.48
2018-09-22T12:53:11.453Z,67.92
2018-09-22T12:54:47.860Z,68.95
2018-09-22T12:56:26.326Z,68.47
2018-09-22T12:58:07.945Z,68.10
2018-09-22T12:59:49.335Z,68.21
2018-09-22T13:01:34.544Z,69.26
2018-09-22T13:03:17.822Z,69.65
2018-09-22T13:05:11.672Z,68.60
2018-09-22T13:06:57.278Z,69.41
2018-09-22T13:08:36.644Z,69.92
2018-09-22T13:10:14.436Z,70.47
2018-09-22T13:11:52.191Z,71.64
2018-09-22T13:13:29.848Z,70.78
2018-09-22T13:15:11.763Z,71.57
2018-09-22T13:17:01.808Z,72.18
2018-09-22T13:18:44.312Z,71.46
2018-09-22T13:20:27.017Z,71.80
2018-09-22T13:22:08.417Z,71.16
2018-09-22T13:23:56.656Z,70.61
2018-09-22T13:25:34.348Z,71.08
2018-09-22T13:27:18.858Z,71.64
2018-09-22T13:29:15.723Z,72.19
2018-09-22T13:30:57.047Z,71.16
2018-09-22T13:32:34.147Z,70.95
2018-09-22T13:34:13.122Z,70.96
2018-09-22T13:35:55.264Z,71.57
2018-09-22T13:37:38.452Z,71.41
2018-09-22T13:39:17.163Z,71.83
2018-09-22T13:40:57.701Z,71.46
2018-09-22T13:43:05.257Z,71.05
2018-09-22T13:45:00.388Z,70.56
2018-09-22T13:49:11.331Z,71.11
2018-09-22T13:51:05.363Z,70.83
2018-09-22T13:55:19.668Z,70.62
2018-09-22T13:57:01.255Z,70.77
2018-09-22T14:00:46.535Z,70.95
2018-09-22T14:02:39.243Z,72.11
2018-09-22T14:06:47.478Z,71.25
2018-09-22T14:08:31.238Z,71.84
2018-09-22T14:10:14.752Z,72.35
2018-09-22T14:11:55.698Z,73.02
2018-09-22T14:13:47.155Z,73.31
2018-09-22T14:15:28.043Z,73.21
2018-09-22T14:17:06.179Z,73.98
2018-09-22T14:18:41.462Z,73.61
2018-09-22T14:20:18.638Z,73.95
2018-09-22T14:21:58.572Z,74.23
2018-09-22T14:23:41.244Z,75.22
2018-09-22T14:25:18.853Z,75.42
2018-09-22T14:27:05.477Z,75.57
2018-09-22T14:28:52.476Z,76.61
2018-09-22T14:30:51.163Z,76.07
2018-09-22T14:32:30.089Z,77.20
2018-09-22T14:34:08.747Z,76.64
2018-09-22T14:35:46.333Z,77.24
2018-09-22T14:37:26.306Z,77.05
2018-09-22T14:39:03.802Z,77.98
2018-09-22T14:40:42.287Z,77.67
2018-09-22T14:42:40.100Z,77.05
2018-09-22T14:44:18.337Z,77.81
2018-09-22T14:45:55.720Z,77.63
2018-09-22T14:47:33.990Z,77.93
2018-09-22T14:49:10.852Z,78.30
2018-09-22T14:50:57.219Z,78.48
2018-09-22T14:52:34.341Z,78.28
2018-09-22T14:54:19.483Z,78.96
2018-09-22T14:55:57.767Z,79.59
2018-09-22T14:57:35.245Z,80.09
2018-09-22T14:59:11.847Z,80.60
2018-09-22T15:00:52.500Z,80.99
2018-09-22T15:02:33.434Z,81.65
2018-09-22T15:04:13.319Z,82.01
2018-09-22T15:05:52.012Z,83.01
2018-09-22T15:07:31.622Z,83.12
2018-09-22T15:09:11.294Z,83.67
2018-09-22T15:10:55.644Z,83.57
2018-09-22T15:12:38.556Z,83.94
2018-09-22T15:14:16.470Z,84.23
2018-09-22T15:15:57.563Z,84.87
2018-09-22T15:17:51.295Z,85.18
2018-09-22T15:19:31.675Z,85.44
2018-09-22T15:21:07.863Z,85.57
2018-09-22T15:22:46.012Z,85.96
2018-09-22T15:24:23.185Z,86.11
2018-09-22T15:26:01.625Z,86.54
2018-09-22T15:27:40.579Z,86.83
2018-09-22T15:29:24.859Z,86.82
2018-09-22T15:31:15.946Z,86.83
2018-09-22T15:32:56.327Z,87.41
2018-09-22T15:34:44.244Z,87.76
2018-09-22T15:36:25.911Z,87.86
2018-09-22T15:38:12.241Z,88.07
2018-09-22T15:40:01.537Z,88.10
2018-09-22T15:41:47.956Z,88.29
2018-09-22T15:43:35.461Z,88.30
2018-09-22T15:45:18.515Z,88.35
2018-09-22T15:46:59.787Z,88.86
2018-09-22T15:48:47.116Z,88.85
2018-09-22T15:50:29.228Z,89.12
2018-09-22T15:52:12.728Z,88.92
2018-09-22T15:53:59.825Z,89.14
2018-09-22T15:55:38.838Z,89.29
2018-09-22T15:57:18.266Z,89.52
2018-09-22T15:58:56.228Z,89.91
2018-09-22T16:00:33.328Z,89.52
2018-09-22T16:02:17.804Z,89.73
2018-09-22T16:03:55.189Z,90.02
2018-09-22T16:05:37.883Z,89.96
2018-09-22T16:07:27.520Z,90.23
2018-09-22T16:09:04.532Z,90.54
2018-09-22T16:10:49.434Z,90.34
2018-09-22T16:12:29.834Z,90.59
2018-09-22T16:14:15.788Z,90.51
2018-09-22T16:15:58.526Z,90.73
2018-09-22T16:20:02.190Z,91.10
2018-09-22T16:21:47.657Z,90.67
2018-09-22T16:23:36.854Z,90.92
2018-09-22T16:25:28.189Z,91.26
2018-09-22T16:27:04.742Z,91.35
2018-09-22T16:28:44.085Z,91.09
2018-09-22T16:30:27.278Z,91.16
2018-09-22T16:32:18.429Z,91.29
2018-09-22T16:33:59.799Z,91.31
2018-09-22T16:35:46.639Z,91.41
2018-09-22T16:37:34.142Z,91.33
2018-09-22T16:39:28.631Z,91.58
2018-09-22T16:41:27.222Z,91.45
2018-09-22T16:43:30.921Z,91.60
2018-09-22T16:45:21.070Z,91.42
2018-09-22T16:47:01.071Z,91.61
2018-09-22T16:48:49.041Z,91.79
2018-09-22T16:50:30.578Z,92.11
2018-09-22T16:52:10.182Z,92.05
2018-09-22T16:53:58.608Z,91.90
2018-09-22T16:55:47.687Z,92.03
2018-09-22T16:57:59.989Z,91.63
2018-09-22T17:00:05.133Z,92.13
2018-09-22T17:01:45.548Z,91.99
2018-09-22T17:03:27.999Z,92.04
2018-09-22T17:05:26.691Z,91.84
2018-09-22T17:08:59.209Z,92.18
2018-09-22T17:10:39.487Z,92.50
2018-09-22T17:12:24.106Z,92.44
2018-09-22T17:14:00.235Z,92.78
2018-09-22T17:15:35.334Z,92.87
2018-09-22T17:17:21.072Z,92.67
2018-09-22T17:21:28.619Z,93.11
2018-09-22T17:23:13.711Z,93.10
2018-09-22T17:27:01.815Z,93.04
2018-09-22T17:28:39.654Z,93.08
2018-09-22T17:30:24.380Z,93.11
2018-09-22T17:32:02.977Z,93.10
2018-09-22T17:33:48.252Z,93.27
2018-09-22T17:35:35.061Z,93.08
2018-09-22T17:37:17.904Z,93.23
2018-09-22T17:38:58.232Z,93.43
2018-09-22T17:40:36.342Z,93.60
2018-09-22T17:42:27.592Z,93.85
2018-09-22T17:45:55.455Z,93.81
2018-09-22T17:47:38.503Z,93.85
2018-09-22T17:49:21.479Z,93.80
2018-09-22T17:51:05.320Z,93.90
2018-09-22T17:52:51.375Z,93.31
2018-09-22T17:56:23.513Z,94.10
2018-09-22T17:58:05.933Z,93.91
2018-09-22T17:59:43.826Z,94.29
2018-09-22T18:01:23.457Z,94.53
2018-09-22T18:03:01.246Z,94.29
2018-09-22T18:04:39.281Z,94.31
2018-09-22T18:06:18.679Z,93.90
2018-09-22T18:08:01.345Z,94.42
2018-09-22T18:09:43.651Z,94.24
2018-09-22T18:11:31.148Z,94.26
2018-09-22T18:13:24.880Z,94.29
2018-09-22T18:15:08.757Z,94.46
2018-09-22T18:16:58.194Z,94.29
2018-09-22T18:18:39.604Z,94.25
2018-09-22T18:22:01.159Z,94.49
2018-09-22T18:23:38.780Z,94.81
2018-09-22T18:25:21.667Z,94.83
2018-09-22T18:27:00.366Z,94.43
2018-09-22T18:28:40.965Z,94.95
2018-09-22T18:30:17.721Z,94.80
2018-09-22T18:32:00.252Z,94.75
2018-09-22T18:33:38.836Z,95.00
2018-09-22T18:35:28.309Z,95.28
2018-09-22T18:37:27.238Z,95.08
2018-09-22T18:39:10.345Z,94.95
2018-09-22T18:40:51.645Z,94.91
2018-09-22T18:42:34.285Z,95.12
2018-09-22T18:44:15.664Z,95.40
2018-09-22T18:45:52.242Z,95.47
2018-09-22T18:47:32.553Z,95.33
2018-09-22T18:49:13.709Z,95.15
2018-09-22T18:51:04.378Z,95.08
2018-09-22T18:52:45.872Z,95.19
2018-09-22T18:54:23.289Z,95.32
2018-09-22T18:56:03.777Z,94.97
2018-09-22T18:57:43.333Z,95.21
2018-09-22T18:59:30.377Z,95.75
2018-09-22T19:01:15.799Z,95.49
2018-09-22T19:02:52.725Z,95.81
2018-09-22T19:04:28.375Z,95.08
2018-09-22T19:06:09.608Z,95.58
2018-09-22T19:07:53.146Z,95.52
2018-09-22T19:09:33.677Z,95.58
2018-09-22T19:11:18.834Z,95.34
2018-09-22T19:12:57.504Z,95.52
2018-09-22T19:14:45.835Z,95.64
2018-09-22T19:17:29.493Z,95.45
2018-09-22T19:19:14.026Z,95.32
2018-09-22T19:21:05.614Z,95.53
2018-09-22T19:22:56.530Z,95.73
2018-09-22T19:26:51.681Z,95.84
2018-09-22T19:28:42.709Z,95.74
2018-09-22T19:31:26.227Z,95.81
2018-09-22T19:34:08.667Z,95.82
2018-09-22T19:35:54.710Z,95.71
2018-09-22T19:37:42.692Z,96.09
2018-09-22T19:39:26.637Z,95.81
2018-09-22T19:41:20.055Z,96.22
2018-09-22T19:43:15.673Z,95.72
2018-09-22T19:45:00.363Z,95.85
2018-09-22T19:46:49.197Z,95.96
2018-09-22T19:48:42.809Z,95.90
2018-09-22T19:50:40.506Z,96.34
2018-09-22T19:54:22.290Z,96.43
2018-09-22T19:56:07.735Z,96.07
2018-09-22T19:57:47.777Z,95.99
2018-09-22T19:59:35.143Z,96.16
2018-09-22T20:03:09.258Z,96.12
2018-09-22T20:05:02.482Z,96.42
2018-09-22T20:06:48.275Z,96.04
2018-09-22T20:08:30.250Z,96.21
2018-09-22T20:10:21.640Z,96.53
2018-09-22T20:12:05.346Z,96.16
2018-09-22T20:13:43.231Z,96.37
2018-09-22T20:15:23.539Z,96.39
2018-09-22T20:17:08.930Z,96.71
2018-09-22T20:20:45.576Z,96.57
2018-09-22T20:22:32.628Z,96.60
2018-09-22T20:24:15.920Z,96.53
2018-09-22T20:26:14.365Z,96.54
2018-09-22T20:27:59.472Z,96.69
2018-09-22T20:29:42.303Z,96.85
2018-09-22T20:31:34.495Z,96.78
2018-09-22T20:33:18.726Z,96.21
2018-09-22T20:34:56.296Z,96.72
2018-09-22T20:36:38.732Z,96.58
2018-09-22T20:38:20.876Z,96.84
2018-09-22T20:40:00.804Z,96.30
2018-09-22T20:41:39.462Z,96.86
2018-09-22T20:43:29.594Z,96.80
2018-09-22T20:45:07.501Z,96.84
2018-09-22T20:46:55.682Z,96.66
2018-09-22T20:50:47.564Z,96.79
2018-09-22T20:52:32.473Z,96.75
2018-09-22T20:54:27.073Z,96.29
2018-09-22T20:56:18.654Z,96.62
2018-09-22T20:58:04.755Z,96.72
2018-09-22T20:59:56.232Z,96.94
2018-09-22T21:01:37.808Z,96.55
2018-09-22T21:03:19.050Z,96.66
2018-09-22T21:05:02.501Z,96.44
2018-09-22T21:06:44.506Z,96.85
2018-09-22T21:08:25.734Z,96.78
2018-09-22T21:10:08.264Z,96.99
2018-09-22T21:11:56.609Z,96.93
2018-09-22T21:13:39.217Z,96.99
2018-09-22T21:17:32.660Z,96.94
2018-09-22T21:19:13.237Z,96.80
2018-09-22T21:20:54.218Z,97.20
2018-09-22T21:22:31.074Z,96.67
2018-09-22T21:24:08.565Z,97.09
2018-09-22T21:26:01.723Z,97.17
2018-09-22T21:27:45.215Z,96.83
2018-09-22T21:29:23.447Z,97.02
2018-09-22T21:31:12.424Z,97.31
2018-09-22T21:32:52.096Z,97.03
2018-09-22T21:34:36.367Z,96.96
2018-09-22T21:36:18.447Z,96.92
2018-09-22T21:38:02.885Z,96.87
2018-09-22T21:39:44.573Z,97.34
2018-09-22T21:41:27.977Z,97.36
2018-09-22T21:43:09.369Z,97.17
2018-09-22T21:44:49.169Z,97.34
2018-09-22T21:46:29.885Z,97.11
2018-09-22T21:48:20.640Z,97.19
2018-09-22T21:49:57.801Z,97.17
2018-09-22T21:51:33.686Z,97.31
2018-09-22T21:53:13.501Z,97.12
2018-09-22T21:54:52.573Z,97.11
2018-09-22T21:56:31.621Z,96.97
2018-09-22T21:58:16.337Z,97.09
2018-09-22T21:59:56.877Z,97.20
2018-09-22T22:01:42.366Z,97.84
2018-09-22T22:03:21.118Z,97.13
2018-09-22T22:05:06.727Z,97.22
2018-09-22T22:06:53.057Z,97.44